sensor_id;sensor_type;location;lat;lon;timestamp;P1;durP1;ratioP1;P2;durP2;ratioP2
60468;SDS011;46316;47.582;10.238;2022-08-07T00:01:34;19.13;;;17.10;;
60468;SDS011;46316;47.582;10.238;2022-08-07T00:04:00;19.15;;;17.13;;
60468;SDS011;46316;47.582;10.238;2022-08-07T00:06:26;20.67;;;18.48;;
60468;SDS011;46316;47.582;10.238;2022-08-07T00:08:51;19.60;;;17.52;;
60468;SDS011;46316;47.582;10.238;2022-08-07T00:11:17;19.27;;;17.20;;
60468;SDS011;46316;47.582;10.238;2022-08-07T00:13:43;18.92;;;16.63;;
60468;SDS011;46316;47.582;10.238;2022-08-07T00:16:10;19.13;;;17.13;;
60468;SDS011;46316;47.582;10.238;2022-08-07T00:18:36;18.70;;;16.80;;
60468;SDS011;46316;47.582;10.238;2022-08-07T00:21:03;20.38;;;18.08;;
60468;SDS011;46316;47.582;10.238;2022-08-07T00:23:30;20.17;;;18.08;;
60468;SDS011;46316;47.582;10.238;2022-08-07T00:25:58;18.17;;;16.42;;
60468;SDS011;46316;47.582;10.238;2022-08-07T00:28:28;19.10;;;17.05;;
60468;SDS011;46316;47.582;10.238;2022-08-07T00:30:55;19.17;;;17.23;;
60468;SDS011;46316;47.582;10.238;2022-08-07T00:33:20;18.85;;;16.95;;
60468;SDS011;46316;47.582;10.238;2022-08-07T00:35:50;19.13;;;17.35;;
60468;SDS011;46316;47.582;10.238;2022-08-07T00:38:17;19.60;;;17.63;;
60468;SDS011;46316;47.582;10.238;2022-08-07T00:40:43;19.23;;;17.02;;
60468;SDS011;46316;47.582;10.238;2022-08-07T00:43:08;18.92;;;16.98;;
60468;SDS011;46316;47.582;10.238;2022-08-07T00:45:36;18.60;;;16.65;;
60468;SDS011;46316;47.582;10.238;2022-08-07T00:48:05;19.53;;;17.53;;
60468;SDS011;46316;47.582;10.238;2022-08-07T00:50:31;19.15;;;17.17;;
60468;SDS011;46316;47.582;10.238;2022-08-07T00:52:57;19.92;;;17.92;;
60468;SDS011;46316;47.582;10.238;2022-08-07T00:55:23;18.83;;;16.83;;
60468;SDS011;46316;47.582;10.238;2022-08-07T00:57:49;20.00;;;17.75;;
60468;SDS011;46316;47.582;10.238;2022-08-07T01:00:16;17.98;;;16.23;;
60468;SDS011;46316;47.582;10.238;2022-08-07T01:02:42;18.15;;;16.38;;
60468;SDS011;46316;47.582;10.238;2022-08-07T01:05:08;20.42;;;18.23;;
60468;SDS011;46316;47.582;10.238;2022-08-07T01:07:34;19.15;;;17.15;;
60468;SDS011;46316;47.582;10.238;2022-08-07T01:10:00;18.60;;;16.75;;
60468;SDS011;46316;47.582;10.238;2022-08-07T01:12:26;20.27;;;16.77;;
60468;SDS011;46316;47.582;10.238;2022-08-07T01:14:52;19.90;;;17.88;;
60468;SDS011;46316;47.582;10.238;2022-08-07T01:17:18;19.80;;;17.55;;
60468;SDS011;46316;47.582;10.238;2022-08-07T01:19:43;20.77;;;17.77;;
60468;SDS011;46316;47.582;10.238;2022-08-07T01:22:09;18.85;;;16.85;;
60468;SDS011;46316;47.582;10.238;2022-08-07T01:24:35;18.05;;;16.10;;
60468;SDS011;46316;47.582;10.238;2022-08-07T01:27:01;18.63;;;16.58;;
60468;SDS011;46316;47.582;10.238;2022-08-07T01:29:28;19.60;;;17.27;;
60468;SDS011;46316;47.582;10.238;2022-08-07T01:31:54;18.30;;;16.33;;
60468;SDS011;46316;47.582;10.238;2022-08-07T01:34:20;18.95;;;16.95;;
60468;SDS011;46316;47.582;10.238;2022-08-07T01:36:47;19.38;;;17.05;;
60468;SDS011;46316;47.582;10.238;2022-08-07T01:39:13;18.55;;;16.75;;
60468;SDS011;46316;47.582;10.238;2022-08-07T01:41:40;21.15;;;17.90;;
60468;SDS011;46316;47.582;10.238;2022-08-07T01:44:07;18.23;;;16.35;;
60468;SDS011;46316;47.582;10.238;2022-08-07T01:46:34;18.45;;;16.52;;
60468;SDS011;46316;47.582;10.238;2022-08-07T01:49:00;19.67;;;16.42;;
60468;SDS011;46316;47.582;10.238;2022-08-07T01:51:26;18.63;;;16.63;;
60468;SDS011;46316;47.582;10.238;2022-08-07T01:53:56;17.63;;;15.70;;
60468;SDS011;46316;47.582;10.238;2022-08-07T01:56:25;21.00;;;17.65;;
60468;SDS011;46316;47.582;10.238;2022-08-07T01:59:00;20.42;;;17.67;;
60468;SDS011;46316;47.582;10.238;2022-08-07T02:01:38;20.63;;;18.47;;
60468;SDS011;46316;47.582;10.238;2022-08-07T02:04:12;20.60;;;18.48;;
60468;SDS011;46316;47.582;10.238;2022-08-07T02:06:42;23.45;;;20.08;;
60468;SDS011;46316;47.582;10.238;2022-08-07T02:09:09;22.55;;;18.75;;
60468;SDS011;46316;47.582;10.238;2022-08-07T02:11:41;21.08;;;17.15;;
60468;SDS011;46316;47.582;10.238;2022-08-07T02:14:09;18.98;;;16.98;;
60468;SDS011;46316;47.582;10.238;2022-08-07T02:16:36;19.73;;;17.73;;
60468;SDS011;46316;47.582;10.238;2022-08-07T02:19:05;18.02;;;16.20;;
60468;SDS011;46316;47.582;10.238;2022-08-07T02:21:37;17.42;;;15.68;;
60468;SDS011;46316;47.582;10.238;2022-08-07T02:24:03;18.20;;;16.30;;
60468;SDS011;46316;47.582;10.238;2022-08-07T02:26:30;17.40;;;15.60;;
60468;SDS011;46316;47.582;10.238;2022-08-07T02:28:58;16.83;;;15.23;;
60468;SDS011;46316;47.582;10.238;2022-08-07T02:31:26;17.23;;;15.43;;
60468;SDS011;46316;47.582;10.238;2022-08-07T02:33:53;18.83;;;14.60;;
60468;SDS011;46316;47.582;10.238;2022-08-07T02:36:21;16.67;;;14.88;;
60468;SDS011;46316;47.582;10.238;2022-08-07T02:38:47;14.68;;;13.18;;
60468;SDS011;46316;47.582;10.238;2022-08-07T02:41:15;15.63;;;13.93;;
60468;SDS011;46316;47.582;10.238;2022-08-07T02:43:41;15.07;;;13.57;;
60468;SDS011;46316;47.582;10.238;2022-08-07T02:46:08;15.55;;;13.98;;
60468;SDS011;46316;47.582;10.238;2022-08-07T02:48:35;14.98;;;13.38;;
60468;SDS011;46316;47.582;10.238;2022-08-07T02:51:04;16.05;;;13.95;;
60468;SDS011;46316;47.582;10.238;2022-08-07T02:53:35;14.23;;;12.77;;
60468;SDS011;46316;47.582;10.238;2022-08-07T02:56:03;14.13;;;12.73;;
60468;SDS011;46316;47.582;10.238;2022-08-07T02:58:32;15.05;;;13.68;;
60468;SDS011;46316;47.582;10.238;2022-08-07T03:00:58;14.55;;;13.05;;
60468;SDS011;46316;47.582;10.238;2022-08-07T03:03:26;13.98;;;12.65;;
60468;SDS011;46316;47.582;10.238;2022-08-07T03:08:22;13.65;;;12.35;;
60468;SDS011;46316;47.582;10.238;2022-08-07T03:10:48;14.32;;;12.98;;
60468;SDS011;46316;47.582;10.238;2022-08-07T03:13:14;13.93;;;12.52;;
60468;SDS011;46316;47.582;10.238;2022-08-07T03:15:41;14.02;;;12.63;;
60468;SDS011;46316;47.582;10.238;2022-08-07T03:18:07;14.27;;;12.88;;
60468;SDS011;46316;47.582;10.238;2022-08-07T03:20:33;17.23;;;13.07;;
60468;SDS011;46316;47.582;10.238;2022-08-07T03:22:59;16.48;;;14.13;;
60468;SDS011;46316;47.582;10.238;2022-08-07T03:25:26;13.93;;;12.63;;
60468;SDS011;46316;47.582;10.238;2022-08-07T03:27:53;14.02;;;12.68;;
60468;SDS011;46316;47.582;10.238;2022-08-07T03:30:21;12.43;;;11.13;;
60468;SDS011;46316;47.582;10.238;2022-08-07T03:32:48;12.88;;;11.68;;
60468;SDS011;46316;47.582;10.238;2022-08-07T03:35:16;13.23;;;11.48;;
60468;SDS011;46316;47.582;10.238;2022-08-07T03:37:45;12.45;;;11.15;;
60468;SDS011;46316;47.582;10.238;2022-08-07T03:40:17;14.70;;;12.20;;
60468;SDS011;46316;47.582;10.238;2022-08-07T03:42:44;12.85;;;11.50;;
60468;SDS011;46316;47.582;10.238;2022-08-07T03:45:10;12.80;;;11.40;;
60468;SDS011;46316;47.582;10.238;2022-08-07T03:47:36;13.82;;;12.43;;
60468;SDS011;46316;47.582;10.238;2022-08-07T03:50:02;13.23;;;11.82;;
60468;SDS011;46316;47.582;10.238;2022-08-07T03:52:28;13.65;;;12.20;;
60468;SDS011;46316;47.582;10.238;2022-08-07T03:54:56;12.90;;;11.60;;
60468;SDS011;46316;47.582;10.238;2022-08-07T03:57:26;14.30;;;12.48;;
60468;SDS011;46316;47.582;10.238;2022-08-07T03:59:54;13.02;;;11.68;;
60468;SDS011;46316;47.582;10.238;2022-08-07T04:02:20;14.90;;;12.15;;
60468;SDS011;46316;47.582;10.238;2022-08-07T04:04:46;12.88;;;11.57;;
60468;SDS011;46316;47.582;10.238;2022-08-07T04:07:14;13.35;;;11.90;;
60468;SDS011;46316;47.582;10.238;2022-08-07T04:09:41;12.68;;;11.38;;
60468;SDS011;46316;47.582;10.238;2022-08-07T04:12:08;12.82;;;11.63;;
60468;SDS011;46316;47.582;10.238;2022-08-07T04:14:34;13.32;;;11.93;;
60468;SDS011;46316;47.582;10.238;2022-08-07T04:16:59;12.25;;;10.93;;
60468;SDS011;46316;47.582;10.238;2022-08-07T04:19:25;12.90;;;11.48;;
60468;SDS011;46316;47.582;10.238;2022-08-07T04:21:51;13.75;;;11.80;;
60468;SDS011;46316;47.582;10.238;2022-08-07T04:24:17;12.95;;;11.65;;
60468;SDS011;46316;47.582;10.238;2022-08-07T04:26:44;12.43;;;11.32;;
60468;SDS011;46316;47.582;10.238;2022-08-07T04:29:10;14.32;;;12.48;;
60468;SDS011;46316;47.582;10.238;2022-08-07T04:31:38;14.02;;;12.48;;
60468;SDS011;46316;47.582;10.238;2022-08-07T04:34:05;16.43;;;13.57;;
60468;SDS011;46316;47.582;10.238;2022-08-07T04:36:31;15.93;;;13.98;;
60468;SDS011;46316;47.582;10.238;2022-08-07T04:38:58;16.98;;;15.07;;
60468;SDS011;46316;47.582;10.238;2022-08-07T04:41:24;16.85;;;15.15;;
60468;SDS011;46316;47.582;10.238;2022-08-07T04:43:50;16.52;;;14.77;;
60468;SDS011;46316;47.582;10.238;2022-08-07T04:54:02;16.85;;;15.13;;
60468;SDS011;46316;47.582;10.238;2022-08-07T04:56:45;15.45;;;13.85;;
60468;SDS011;46316;47.582;10.238;2022-08-07T04:59:26;15.63;;;13.55;;
60468;SDS011;46316;47.582;10.238;2022-08-07T05:04:34;16.50;;;13.88;;
60468;SDS011;46316;47.582;10.238;2022-08-07T05:07:11;14.48;;;12.98;;
60468;SDS011;46316;47.582;10.238;2022-08-07T05:09:43;14.38;;;12.18;;
60468;SDS011;46316;47.582;10.238;2022-08-07T05:12:35;16.35;;;13.18;;
60468;SDS011;46316;47.582;10.238;2022-08-07T05:15:06;14.00;;;12.10;;
60468;SDS011;46316;47.582;10.238;2022-08-07T05:17:47;14.18;;;12.68;;
60468;SDS011;46316;47.582;10.238;2022-08-07T05:20:18;14.13;;;12.15;;
60468;SDS011;46316;47.582;10.238;2022-08-07T05:25:27;12.25;;;10.95;;
60468;SDS011;46316;47.582;10.238;2022-08-07T05:27:55;14.43;;;12.40;;
60468;SDS011;46316;47.582;10.238;2022-08-07T05:30:22;12.73;;;11.38;;
60468;SDS011;46316;47.582;10.238;2022-08-07T05:32:49;12.77;;;11.02;;
60468;SDS011;46316;47.582;10.238;2022-08-07T05:35:15;13.35;;;11.95;;
60468;SDS011;46316;47.582;10.238;2022-08-07T05:37:43;13.98;;;10.90;;
60468;SDS011;46316;47.582;10.238;2022-08-07T05:40:10;12.10;;;10.90;;
60468;SDS011;46316;47.582;10.238;2022-08-07T05:42:37;11.45;;;10.15;;
60468;SDS011;46316;47.582;10.238;2022-08-07T05:45:03;14.07;;;10.40;;
60468;SDS011;46316;47.582;10.238;2022-08-07T05:47:30;12.93;;;10.45;;
60468;SDS011;46316;47.582;10.238;2022-08-07T05:49:56;10.80;;;9.48;;
60468;SDS011;46316;47.582;10.238;2022-08-07T05:52:22;11.88;;;10.63;;
60468;SDS011;46316;47.582;10.238;2022-08-07T05:54:48;12.13;;;9.73;;
60468;SDS011;46316;47.582;10.238;2022-08-07T05:57:14;13.30;;;11.07;;
60468;SDS011;46316;47.582;10.238;2022-08-07T05:59:41;10.95;;;9.85;;
60468;SDS011;46316;47.582;10.238;2022-08-07T06:02:12;14.63;;;11.20;;
60468;SDS011;46316;47.582;10.238;2022-08-07T06:04:40;11.15;;;9.50;;
60468;SDS011;46316;47.582;10.238;2022-08-07T06:07:12;10.23;;;9.23;;
60468;SDS011;46316;47.582;10.238;2022-08-07T06:09:38;10.05;;;9.05;;
60468;SDS011;46316;47.582;10.238;2022-08-07T06:12:04;10.38;;;9.27;;
60468;SDS011;46316;47.582;10.238;2022-08-07T06:14:31;9.38;;;8.45;;
60468;SDS011;46316;47.582;10.238;2022-08-07T06:16:57;9.55;;;8.55;;
60468;SDS011;46316;47.582;10.238;2022-08-07T06:19:23;9.48;;;8.13;;
60468;SDS011;46316;47.582;10.238;2022-08-07T06:21:50;8.93;;;7.80;;
60468;SDS011;46316;47.582;10.238;2022-08-07T06:24:17;11.70;;;8.82;;
60468;SDS011;46316;47.582;10.238;2022-08-07T06:26:42;10.98;;;8.75;;
60468;SDS011;46316;47.582;10.238;2022-08-07T06:29:08;9.80;;;8.48;;
60468;SDS011;46316;47.582;10.238;2022-08-07T06:31:34;10.02;;;8.65;;
60468;SDS011;46316;47.582;10.238;2022-08-07T06:34:00;9.73;;;7.70;;
60468;SDS011;46316;47.582;10.238;2022-08-07T06:36:25;9.75;;;8.00;;
60468;SDS011;46316;47.582;10.238;2022-08-07T06:38:52;10.13;;;9.05;;
60468;SDS011;46316;47.582;10.238;2022-08-07T06:41:25;10.52;;;8.80;;
60468;SDS011;46316;47.582;10.238;2022-08-07T06:43:59;9.77;;;8.85;;
60468;SDS011;46316;47.582;10.238;2022-08-07T06:46:26;10.48;;;8.75;;
60468;SDS011;46316;47.582;10.238;2022-08-07T06:48:51;10.25;;;8.02;;
60468;SDS011;46316;47.582;10.238;2022-08-07T06:51:19;9.35;;;8.40;;
60468;SDS011;46316;47.582;10.238;2022-08-07T06:53:50;8.90;;;7.88;;
60468;SDS011;46316;47.582;10.238;2022-08-07T06:56:18;8.90;;;8.00;;
60468;SDS011;46316;47.582;10.238;2022-08-07T06:59:04;11.10;;;7.97;;
60468;SDS011;46316;47.582;10.238;2022-08-07T07:01:32;8.63;;;7.82;;
60468;SDS011;46316;47.582;10.238;2022-08-07T07:03:59;9.90;;;8.40;;
60468;SDS011;46316;47.582;10.238;2022-08-07T07:06:24;8.23;;;7.43;;
60468;SDS011;46316;47.582;10.238;2022-08-07T07:08:50;9.23;;;7.45;;
60468;SDS011;46316;47.582;10.238;2022-08-07T07:11:16;8.02;;;7.05;;
60468;SDS011;46316;47.582;10.238;2022-08-07T07:13:43;8.38;;;7.07;;
60468;SDS011;46316;47.582;10.238;2022-08-07T07:16:15;8.10;;;6.97;;
60468;SDS011;46316;47.582;10.238;2022-08-07T07:18:48;7.28;;;6.55;;
60468;SDS011;46316;47.582;10.238;2022-08-07T07:21:21;7.28;;;6.50;;
60468;SDS011;46316;47.582;10.238;2022-08-07T07:23:50;7.53;;;6.82;;
60468;SDS011;46316;47.582;10.238;2022-08-07T07:26:17;6.63;;;6.03;;
60468;SDS011;46316;47.582;10.238;2022-08-07T07:28:45;6.88;;;6.18;;
60468;SDS011;46316;47.582;10.238;2022-08-07T07:31:32;7.63;;;6.68;;
60468;SDS011;46316;47.582;10.238;2022-08-07T07:34:03;6.95;;;6.32;;
60468;SDS011;46316;47.582;10.238;2022-08-07T07:36:32;7.23;;;6.53;;
60468;SDS011;46316;47.582;10.238;2022-08-07T07:41:26;7.28;;;6.55;;
60468;SDS011;46316;47.582;10.238;2022-08-07T07:43:53;6.93;;;6.28;;
60468;SDS011;46316;47.582;10.238;2022-08-07T07:46:20;8.15;;;6.65;;
60468;SDS011;46316;47.582;10.238;2022-08-07T07:48:47;8.80;;;7.07;;
60468;SDS011;46316;47.582;10.238;2022-08-07T07:51:15;7.93;;;7.13;;
60468;SDS011;46316;47.582;10.238;2022-08-07T07:53:43;6.75;;;5.93;;
60468;SDS011;46316;47.582;10.238;2022-08-07T07:56:10;7.70;;;6.95;;
60468;SDS011;46316;47.582;10.238;2022-08-07T07:58:37;7.45;;;6.75;;
60468;SDS011;46316;47.582;10.238;2022-08-07T08:01:04;6.82;;;6.10;;
60468;SDS011;46316;47.582;10.238;2022-08-07T08:03:32;7.40;;;6.70;;
60468;SDS011;46316;47.582;10.238;2022-08-07T08:06:00;8.05;;;7.13;;
60468;SDS011;46316;47.582;10.238;2022-08-07T08:08:27;7.40;;;6.50;;
60468;SDS011;46316;47.582;10.238;2022-08-07T08:10:54;7.93;;;7.03;;
60468;SDS011;46316;47.582;10.238;2022-08-07T08:13:21;7.43;;;6.72;;
60468;SDS011;46316;47.582;10.238;2022-08-07T08:15:50;7.87;;;6.33;;
60468;SDS011;46316;47.582;10.238;2022-08-07T08:18:16;8.23;;;7.20;;
60468;SDS011;46316;47.582;10.238;2022-08-07T08:20:46;8.07;;;7.28;;
60468;SDS011;46316;47.582;10.238;2022-08-07T08:23:13;6.80;;;6.22;;
60468;SDS011;46316;47.582;10.238;2022-08-07T08:25:59;7.88;;;6.57;;
60468;SDS011;46316;47.582;10.238;2022-08-07T08:28:45;7.40;;;6.72;;
60468;SDS011;46316;47.582;10.238;2022-08-07T08:31:23;8.35;;;7.55;;
60468;SDS011;46316;47.582;10.238;2022-08-07T08:33:51;8.70;;;6.88;;
60468;SDS011;46316;47.582;10.238;2022-08-07T08:36:19;8.10;;;7.40;;
60468;SDS011;46316;47.582;10.238;2022-08-07T08:38:48;7.43;;;6.82;;
60468;SDS011;46316;47.582;10.238;2022-08-07T08:41:21;7.60;;;6.93;;
60468;SDS011;46316;47.582;10.238;2022-08-07T08:44:01;7.63;;;6.85;;
60468;SDS011;46316;47.582;10.238;2022-08-07T08:46:43;8.15;;;7.45;;
60468;SDS011;46316;47.582;10.238;2022-08-07T08:49:17;7.95;;;7.15;;
60468;SDS011;46316;47.582;10.238;2022-08-07T08:54:53;8.13;;;7.38;;
60468;SDS011;46316;47.582;10.238;2022-08-07T08:57:43;8.27;;;7.20;;
60468;SDS011;46316;47.582;10.238;2022-08-07T09:00:20;9.15;;;8.23;;
60468;SDS011;46316;47.582;10.238;2022-08-07T09:02:54;7.80;;;7.05;;
60468;SDS011;46316;47.582;10.238;2022-08-07T09:06:10;8.55;;;7.75;;
60468;SDS011;46316;47.582;10.238;2022-08-07T09:08:28;8.75;;;7.95;;
60468;SDS011;46316;47.582;10.238;2022-08-07T09:14:11;8.80;;;8.00;;
60468;SDS011;46316;47.582;10.238;2022-08-07T09:16:43;8.35;;;7.57;;
60468;SDS011;46316;47.582;10.238;2022-08-07T09:19:21;8.18;;;7.47;;
60468;SDS011;46316;47.582;10.238;2022-08-07T09:21:56;7.78;;;7.07;;
60468;SDS011;46316;47.582;10.238;2022-08-07T09:24:48;8.57;;;7.70;;
60468;SDS011;46316;47.582;10.238;2022-08-07T09:27:29;8.05;;;7.28;;
60468;SDS011;46316;47.582;10.238;2022-08-07T09:30:07;8.15;;;7.45;;
60468;SDS011;46316;47.582;10.238;2022-08-07T09:43:08;7.88;;;7.18;;
60468;SDS011;46316;47.582;10.238;2022-08-07T09:46:08;8.05;;;7.35;;
60468;SDS011;46316;47.582;10.238;2022-08-07T09:48:44;7.45;;;6.63;;
60468;SDS011;46316;47.582;10.238;2022-08-07T09:54:12;7.40;;;6.70;;
60468;SDS011;46316;47.582;10.238;2022-08-07T10:02:33;7.03;;;6.32;;
60468;SDS011;46316;47.582;10.238;2022-08-07T10:05:34;6.75;;;6.05;;
60468;SDS011;46316;47.582;10.238;2022-08-07T10:14:11;6.93;;;6.33;;
60468;SDS011;46316;47.582;10.238;2022-08-07T10:28:04;6.25;;;5.45;;
60468;SDS011;46316;47.582;10.238;2022-08-07T10:34:14;6.43;;;5.85;;
60468;SDS011;46316;47.582;10.238;2022-08-07T10:36:16;5.97;;;5.47;;
60468;SDS011;46316;47.582;10.238;2022-08-07T10:50:18;9.18;;;6.13;;
60468;SDS011;46316;47.582;10.238;2022-08-07T10:53:18;6.30;;;5.80;;
60468;SDS011;46316;47.582;10.238;2022-08-07T10:55:58;5.72;;;5.22;;
60468;SDS011;46316;47.582;10.238;2022-08-07T11:03:37;7.45;;;5.25;;
60468;SDS011;46316;47.582;10.238;2022-08-07T11:06:18;5.72;;;5.20;;
60468;SDS011;46316;47.582;10.238;2022-08-07T11:09:01;6.15;;;5.30;;
60468;SDS011;46316;47.582;10.238;2022-08-07T11:11:31;6.28;;;5.55;;
60468;SDS011;46316;47.582;10.238;2022-08-07T11:17:10;5.82;;;5.22;;
60468;SDS011;46316;47.582;10.238;2022-08-07T11:20:00;5.85;;;5.22;;
60468;SDS011;46316;47.582;10.238;2022-08-07T11:22:32;7.50;;;5.63;;
60468;SDS011;46316;47.582;10.238;2022-08-07T11:25:05;6.45;;;5.13;;
60468;SDS011;46316;47.582;10.238;2022-08-07T11:27:44;6.45;;;5.72;;
60468;SDS011;46316;47.582;10.238;2022-08-07T11:30:17;6.63;;;5.70;;
60468;SDS011;46316;47.582;10.238;2022-08-07T11:35:20;5.70;;;5.13;;
60468;SDS011;46316;47.582;10.238;2022-08-07T11:40:55;6.00;;;4.50;;
60468;SDS011;46316;47.582;10.238;2022-08-07T11:43:24;7.07;;;4.97;;
60468;SDS011;46316;47.582;10.238;2022-08-07T11:48:49;5.32;;;4.93;;
60468;SDS011;46316;47.582;10.238;2022-08-07T11:51:40;5.70;;;5.10;;
60468;SDS011;46316;47.582;10.238;2022-08-07T11:57:15;6.65;;;4.35;;
60468;SDS011;46316;47.582;10.238;2022-08-07T11:59:54;4.72;;;4.13;;
60468;SDS011;46316;47.582;10.238;2022-08-07T12:02:50;5.10;;;4.70;;
60468;SDS011;46316;47.582;10.238;2022-08-07T12:08:37;4.28;;;3.88;;
60468;SDS011;46316;47.582;10.238;2022-08-07T12:11:33;4.53;;;4.07;;
60468;SDS011;46316;47.582;10.238;2022-08-07T12:14:06;4.68;;;4.28;;
60468;SDS011;46316;47.582;10.238;2022-08-07T12:16:41;5.85;;;4.25;;
60468;SDS011;46316;47.582;10.238;2022-08-07T12:21:52;4.90;;;4.40;;
60468;SDS011;46316;47.582;10.238;2022-08-07T12:24:42;4.40;;;4.00;;
60468;SDS011;46316;47.582;10.238;2022-08-07T12:27:41;4.43;;;3.50;;
60468;SDS011;46316;47.582;10.238;2022-08-07T12:30:11;3.97;;;3.65;;
60468;SDS011;46316;47.582;10.238;2022-08-07T12:32:46;3.47;;;3.17;;
60468;SDS011;46316;47.582;10.238;2022-08-07T12:35:18;3.83;;;3.53;;
60468;SDS011;46316;47.582;10.238;2022-08-07T12:37:46;4.03;;;3.67;;
60468;SDS011;46316;47.582;10.238;2022-08-07T12:40:18;4.50;;;4.05;;
60468;SDS011;46316;47.582;10.238;2022-08-07T12:42:48;4.35;;;3.72;;
60468;SDS011;46316;47.582;10.238;2022-08-07T12:45:22;4.35;;;3.35;;
60468;SDS011;46316;47.582;10.238;2022-08-07T12:47:54;4.10;;;3.72;;
60468;SDS011;46316;47.582;10.238;2022-08-07T12:53:10;4.60;;;4.15;;
60468;SDS011;46316;47.582;10.238;2022-08-07T12:58:27;6.22;;;3.55;;
60468;SDS011;46316;47.582;10.238;2022-08-07T13:12:10;5.25;;;4.13;;
60468;SDS011;46316;47.582;10.238;2022-08-07T13:15:17;4.70;;;4.20;;
60468;SDS011;46316;47.582;10.238;2022-08-07T13:21:00;4.80;;;4.40;;
60468;SDS011;46316;47.582;10.238;2022-08-07T13:31:40;4.55;;;4.25;;
60468;SDS011;46316;47.582;10.238;2022-08-07T13:36:58;5.28;;;4.78;;
60468;SDS011;46316;47.582;10.238;2022-08-07T13:39:48;5.18;;;4.68;;
60468;SDS011;46316;47.582;10.238;2022-08-07T13:42:34;4.50;;;4.10;;
60468;SDS011;46316;47.582;10.238;2022-08-07T13:45:02;4.53;;;4.13;;
60468;SDS011;46316;47.582;10.238;2022-08-07T13:47:31;5.35;;;4.45;;
60468;SDS011;46316;47.582;10.238;2022-08-07T13:50:03;6.15;;;4.38;;
60468;SDS011;46316;47.582;10.238;2022-08-07T13:52:31;4.40;;;4.10;;
60468;SDS011;46316;47.582;10.238;2022-08-07T13:55:04;5.60;;;5.15;;
60468;SDS011;46316;47.582;10.238;2022-08-07T13:57:33;5.60;;;5.05;;
60468;SDS011;46316;47.582;10.238;2022-08-07T14:00:02;4.90;;;4.50;;
60468;SDS011;46316;47.582;10.238;2022-08-07T14:02:32;5.30;;;4.90;;
60468;SDS011;46316;47.582;10.238;2022-08-07T14:05:03;5.88;;;5.25;;
60468;SDS011;46316;47.582;10.238;2022-08-07T14:07:37;4.80;;;4.40;;
60468;SDS011;46316;47.582;10.238;2022-08-07T14:10:08;5.20;;;4.72;;
60468;SDS011;46316;47.582;10.238;2022-08-07T14:17:56;5.03;;;4.30;;
60468;SDS011;46316;47.582;10.238;2022-08-07T14:20:28;6.18;;;4.70;;
60468;SDS011;46316;47.582;10.238;2022-08-07T14:23:29;4.25;;;3.90;;
60468;SDS011;46316;47.582;10.238;2022-08-07T14:26:11;4.65;;;4.22;;
60468;SDS011;46316;47.582;10.238;2022-08-07T14:28:42;4.30;;;4.00;;
60468;SDS011;46316;47.582;10.238;2022-08-07T14:31:09;5.10;;;4.35;;
60468;SDS011;46316;47.582;10.238;2022-08-07T14:33:37;4.78;;;4.00;;
60468;SDS011;46316;47.582;10.238;2022-08-07T14:36:04;5.75;;;4.28;;
60468;SDS011;46316;47.582;10.238;2022-08-07T14:38:31;4.53;;;4.13;;
60468;SDS011;46316;47.582;10.238;2022-08-07T14:40:58;4.20;;;3.83;;
60468;SDS011;46316;47.582;10.238;2022-08-07T14:43:26;5.03;;;4.53;;
60468;SDS011;46316;47.582;10.238;2022-08-07T14:45:55;4.50;;;4.10;;
60468;SDS011;46316;47.582;10.238;2022-08-07T14:48:26;4.25;;;3.85;;
60468;SDS011;46316;47.582;10.238;2022-08-07T14:50:59;4.38;;;3.97;;
60468;SDS011;46316;47.582;10.238;2022-08-07T14:53:31;4.05;;;3.65;;
60468;SDS011;46316;47.582;10.238;2022-08-07T14:56:06;4.43;;;3.97;;
60468;SDS011;46316;47.582;10.238;2022-08-07T14:58:34;4.90;;;4.45;;
60468;SDS011;46316;47.582;10.238;2022-08-07T15:01:03;4.20;;;3.85;;
60468;SDS011;46316;47.582;10.238;2022-08-07T15:03:30;3.78;;;3.42;;
60468;SDS011;46316;47.582;10.238;2022-08-07T15:05:58;3.88;;;3.58;;
60468;SDS011;46316;47.582;10.238;2022-08-07T15:08:26;4.43;;;4.03;;
60468;SDS011;46316;47.582;10.238;2022-08-07T15:10:56;4.70;;;4.25;;
60468;SDS011;46316;47.582;10.238;2022-08-07T15:13:25;4.70;;;3.42;;
60468;SDS011;46316;47.582;10.238;2022-08-07T15:15:55;3.78;;;3.47;;
60468;SDS011;46316;47.582;10.238;2022-08-07T15:18:29;4.53;;;3.63;;
60468;SDS011;46316;47.582;10.238;2022-08-07T15:20:58;4.10;;;3.33;;
60468;SDS011;46316;47.582;10.238;2022-08-07T15:23:30;4.10;;;3.42;;
60468;SDS011;46316;47.582;10.238;2022-08-07T15:25:58;4.18;;;3.75;;
60468;SDS011;46316;47.582;10.238;2022-08-07T15:28:26;4.47;;;4.10;;
60468;SDS011;46316;47.582;10.238;2022-08-07T15:30:55;4.30;;;3.90;;
60468;SDS011;46316;47.582;10.238;2022-08-07T15:33:25;4.32;;;3.92;;
60468;SDS011;46316;47.582;10.238;2022-08-07T15:35:52;4.22;;;3.75;;
60468;SDS011;46316;47.582;10.238;2022-08-07T15:38:24;3.90;;;3.60;;
60468;SDS011;46316;47.582;10.238;2022-08-07T15:40:52;5.25;;;3.95;;
60468;SDS011;46316;47.582;10.238;2022-08-07T15:43:21;4.05;;;3.75;;
60468;SDS011;46316;47.582;10.238;2022-08-07T15:45:49;5.87;;;3.70;;
60468;SDS011;46316;47.582;10.238;2022-08-07T15:48:22;3.95;;;3.38;;
60468;SDS011;46316;47.582;10.238;2022-08-07T15:50:52;4.05;;;3.65;;
60468;SDS011;46316;47.582;10.238;2022-08-07T15:53:24;3.70;;;3.40;;
60468;SDS011;46316;47.582;10.238;2022-08-07T15:56:14;4.93;;;4.03;;
60468;SDS011;46316;47.582;10.238;2022-08-07T15:58:48;3.70;;;3.40;;
60468;SDS011;46316;47.582;10.238;2022-08-07T16:01:19;4.07;;;3.78;;
60468;SDS011;46316;47.582;10.238;2022-08-07T16:03:48;3.38;;;3.17;;
60468;SDS011;46316;47.582;10.238;2022-08-07T16:06:23;4.03;;;3.67;;
60468;SDS011;46316;47.582;10.238;2022-08-07T16:08:59;4.28;;;3.63;;
60468;SDS011;46316;47.582;10.238;2022-08-07T16:17:14;4.93;;;4.45;;
60468;SDS011;46316;47.582;10.238;2022-08-07T16:31:03;3.83;;;3.50;;
60468;SDS011;46316;47.582;10.238;2022-08-07T16:33:37;4.05;;;3.55;;
60468;SDS011;46316;47.582;10.238;2022-08-07T16:47:24;3.63;;;3.33;;
60468;SDS011;46316;47.582;10.238;2022-08-07T16:56:23;5.22;;;3.40;;
60468;SDS011;46316;47.582;10.238;2022-08-07T16:58:50;3.90;;;3.60;;
60468;SDS011;46316;47.582;10.238;2022-08-07T17:01:28;4.50;;;3.65;;
60468;SDS011;46316;47.582;10.238;2022-08-07T17:09:50;4.15;;;3.78;;
60468;SDS011;46316;47.582;10.238;2022-08-07T17:12:34;4.65;;;3.83;;
60468;SDS011;46316;47.582;10.238;2022-08-07T17:17:59;4.68;;;3.72;;
60468;SDS011;46316;47.582;10.238;2022-08-07T17:20:35;4.57;;;4.18;;
60468;SDS011;46316;47.582;10.238;2022-08-07T17:28:28;5.55;;;5.05;;
60468;SDS011;46316;47.582;10.238;2022-08-07T17:33:34;5.10;;;4.03;;
60468;SDS011;46316;47.582;10.238;2022-08-07T17:36:04;6.13;;;4.20;;
60468;SDS011;46316;47.582;10.238;2022-08-07T17:38:48;4.68;;;4.28;;
60468;SDS011;46316;47.582;10.238;2022-08-07T17:41:15;4.32;;;3.90;;
60468;SDS011;46316;47.582;10.238;2022-08-07T17:44:10;3.83;;;3.53;;
60468;SDS011;46316;47.582;10.238;2022-08-07T17:46:56;4.70;;;4.33;;
60468;SDS011;46316;47.582;10.238;2022-08-07T17:51:55;4.28;;;3.72;;
60468;SDS011;46316;47.582;10.238;2022-08-07T17:54:33;4.25;;;3.95;;
60468;SDS011;46316;47.582;10.238;2022-08-07T17:59:38;4.35;;;3.95;;